Orange Beach, AL

4:12 PM CST on February 13, 2016 (GMT -0600)
Community Development | | Change Station
CLOSE
Current Station
Personal Weather Station
Location: Orange Beach, AL
Elevation: 59 ft
Nearby Weather Stations

Elev 59 ft 30.28 °N, 87.58 °W | Updated 6 minutes ago

Clear
Clear
61.5 °F
Feels Like 61.5 °F
N
3.0
Wind Variable Wind from NNW
Gusts 6.0 mph

Today
High -- | Low -- °F
--% Chance of Precip.
Yesterday
High -- | Low -- °F
Precip. -- in
Pressure 30.32 in
Visibility 10.0 miles
Clouds Clear
Dew Point 29 °F
Humidity 29%
Rainfall 0.00 in
Snow Depth Not available.
6:32 AM 5:36 PM
Waxing Crescent, 34% visible
METAR KJKA 132155Z AUTO 36006KT 10SM CLR 15/M05 A3032 RMK AO2 T01531048
Pressure 30.32 in
Visibility 10.0 miles
Clouds Clear
Dew Point 29 °F
Humidity 29%
Rainfall 0.00 in
Snow Depth Not available.
6:32 AM 5:36 PM
Waxing Crescent, 34% visible
METAR KJKA 132155Z AUTO 36006KT 10SM CLR 15/M05 A3032 RMK AO2 T01531048

10-Day Weather Forecast

Almanac

Astronomy

Feb. 13, 2016 Rise Set
Actual Time
Civil Twilight
Nautical Twilight
Astronomical Twilight
Moon
Length of Visible Light
Length of Day
Tomorrow will be .
, % of the Moon is Illuminated

Today's Extremes

State Highs State Lows

Community

WunderPhotos

Upload Photos

1,892,687 photos uploaded!

WunderBlog® & News

Nearby

Air Quality

  Air Quality AQ Index Pollutant
Not available.

Snow Depth

Station Depth Elevation

Earthquake Activity

City Distance Mag. Time & Date
Minimum magnitude displayed is 2.5.

Coastal Water Temperatures

Place Temperature

Stations

Nearby Weather Stations

Station Location Temp. Windchill Dew Point Humidity Wind Precip. Elev Updated Type
                   

Watches & Warnings

There are currently no watches in effect.